sensor_id;sensor_type;location;lat;lon;timestamp;temperature;humidity
21216;DHT22;10765;50.954;5.322;2023-09-19T00:00:56;15.10;1.00
21216;DHT22;10765;50.954;5.322;2023-09-19T00:03:23;15.10;1.00
21216;DHT22;10765;50.954;5.322;2023-09-19T00:05:52;15.00;1.00
21216;DHT22;10765;50.954;5.322;2023-09-19T00:08:21;15.00;1.00
21216;DHT22;10765;50.954;5.322;2023-09-19T00:10:50;15.00;1.00
21216;DHT22;10765;50.954;5.322;2023-09-19T00:13:19;15.00;1.00
21216;DHT22;10765;50.954;5.322;2023-09-19T00:15:48;15.00;1.00
21216;DHT22;10765;50.954;5.322;2023-09-19T00:18:15;15.00;1.00
21216;DHT22;10765;50.954;5.322;2023-09-19T00:20:42;15.00;1.00
21216;DHT22;10765;50.954;5.322;2023-09-19T00:23:14;15.00;1.00
21216;DHT22;10765;50.954;5.322;2023-09-19T00:25:42;15.00;1.00
21216;DHT22;10765;50.954;5.322;2023-09-19T00:28:09;15.00;1.00
21216;DHT22;10765;50.954;5.322;2023-09-19T00:30:36;15.00;1.00
21216;DHT22;10765;50.954;5.322;2023-09-19T00:33:04;15.00;1.00
21216;DHT22;10765;50.954;5.322;2023-09-19T00:35:33;15.00;1.00
21216;DHT22;10765;50.954;5.322;2023-09-19T00:38:00;15.00;1.00
21216;DHT22;10765;50.954;5.322;2023-09-19T00:40:29;15.00;1.00
21216;DHT22;10765;50.954;5.322;2023-09-19T00:42:58;15.00;1.00
21216;DHT22;10765;50.954;5.322;2023-09-19T00:45:26;15.00;99.90
21216;DHT22;10765;50.954;5.322;2023-09-19T00:47:54;15.00;1.00
21216;DHT22;10765;50.954;5.322;2023-09-19T00:50:24;15.00;99.90
21216;DHT22;10765;50.954;5.322;2023-09-19T00:52:54;15.00;99.90
21216;DHT22;10765;50.954;5.322;2023-09-19T00:55:24;15.00;99.90
21216;DHT22;10765;50.954;5.322;2023-09-19T00:57:52;14.90;99.90
21216;DHT22;10765;50.954;5.322;2023-09-19T01:00:22;15.00;99.90
21216;DHT22;10765;50.954;5.322;2023-09-19T01:02:49;15.00;99.90
21216;DHT22;10765;50.954;5.322;2023-09-19T01:05:16;15.00;99.90
21216;DHT22;10765;50.954;5.322;2023-09-19T01:07:44;15.00;1.00
21216;DHT22;10765;50.954;5.322;2023-09-19T01:10:13;14.90;1.00
21216;DHT22;10765;50.954;5.322;2023-09-19T01:12:50;14.90;1.00
21216;DHT22;10765;50.954;5.322;2023-09-19T01:15:30;14.90;1.00
21216;DHT22;10765;50.954;5.322;2023-09-19T01:18:05;14.90;1.00
21216;DHT22;10765;50.954;5.322;2023-09-19T01:20:40;14.90;1.00
21216;DHT22;10765;50.954;5.322;2023-09-19T01:23:18;14.90;1.00
21216;DHT22;10765;50.954;5.322;2023-09-19T01:26:23;14.90;1.00
21216;DHT22;10765;50.954;5.322;2023-09-19T01:29:12;14.90;1.00
21216;DHT22;10765;50.954;5.322;2023-09-19T01:31:42;14.80;99.90
21216;DHT22;10765;50.954;5.322;2023-09-19T01:34:09;14.80;99.90
21216;DHT22;10765;50.954;5.322;2023-09-19T01:36:37;14.80;99.90
21216;DHT22;10765;50.954;5.322;2023-09-19T01:39:05;14.80;1.00
21216;DHT22;10765;50.954;5.322;2023-09-19T01:41:45;14.80;1.00
21216;DHT22;10765;50.954;5.322;2023-09-19T01:44:19;14.80;1.00
21216;DHT22;10765;50.954;5.322;2023-09-19T01:46:50;14.80;99.90
21216;DHT22;10765;50.954;5.322;2023-09-19T01:49:25;14.70;99.90
21216;DHT22;10765;50.954;5.322;2023-09-19T01:52:02;14.70;99.90
21216;DHT22;10765;50.954;5.322;2023-09-19T01:54:34;14.70;1.00
21216;DHT22;10765;50.954;5.322;2023-09-19T01:57:09;14.70;99.90
21216;DHT22;10765;50.954;5.322;2023-09-19T01:59:41;14.60;1.00
21216;DHT22;10765;50.954;5.322;2023-09-19T02:02:12;14.60;1.00
21216;DHT22;10765;50.954;5.322;2023-09-19T02:04:40;14.60;1.00
21216;DHT22;10765;50.954;5.322;2023-09-19T02:07:08;14.60;1.00
21216;DHT22;10765;50.954;5.322;2023-09-19T02:09:35;14.50;99.90
21216;DHT22;10765;50.954;5.322;2023-09-19T02:12:05;14.60;99.90
21216;DHT22;10765;50.954;5.322;2023-09-19T02:14:32;14.50;99.90
21216;DHT22;10765;50.954;5.322;2023-09-19T02:16:59;14.50;99.90
21216;DHT22;10765;50.954;5.322;2023-09-19T02:19:28;14.50;99.90
21216;DHT22;10765;50.954;5.322;2023-09-19T02:21:55;14.40;99.90
21216;DHT22;10765;50.954;5.322;2023-09-19T02:24:21;14.40;99.90
21216;DHT22;10765;50.954;5.322;2023-09-19T02:26:52;14.40;1.00
21216;DHT22;10765;50.954;5.322;2023-09-19T02:29:20;14.40;99.90
21216;DHT22;10765;50.954;5.322;2023-09-19T02:31:47;14.30;1.00
21216;DHT22;10765;50.954;5.322;2023-09-19T02:34:14;14.30;1.00
21216;DHT22;10765;50.954;5.322;2023-09-19T02:36:43;14.30;99.90
21216;DHT22;10765;50.954;5.322;2023-09-19T02:39:11;14.30;1.00
21216;DHT22;10765;50.954;5.322;2023-09-19T02:41:38;14.30;1.00
21216;DHT22;10765;50.954;5.322;2023-09-19T02:44:07;14.20;1.00
21216;DHT22;10765;50.954;5.322;2023-09-19T02:46:34;14.20;1.00
21216;DHT22;10765;50.954;5.322;2023-09-19T02:49:02;14.20;1.00
21216;DHT22;10765;50.954;5.322;2023-09-19T02:51:30;14.20;1.00
21216;DHT22;10765;50.954;5.322;2023-09-19T02:53:59;14.20;1.00
21216;DHT22;10765;50.954;5.322;2023-09-19T02:56:26;14.20;1.00
21216;DHT22;10765;50.954;5.322;2023-09-19T02:58:53;14.20;99.90
21216;DHT22;10765;50.954;5.322;2023-09-19T03:01:20;14.20;99.90
21216;DHT22;10765;50.954;5.322;2023-09-19T03:03:48;14.10;99.90
21216;DHT22;10765;50.954;5.322;2023-09-19T03:06:15;14.10;99.90
21216;DHT22;10765;50.954;5.322;2023-09-19T03:08:43;14.10;99.90
21216;DHT22;10765;50.954;5.322;2023-09-19T03:11:12;14.10;82.00
21216;DHT22;10765;50.954;5.322;2023-09-19T03:13:40;14.10;99.90
21216;DHT22;10765;50.954;5.322;2023-09-19T03:16:08;14.10;98.90
21216;DHT22;10765;50.954;5.322;2023-09-19T03:18:35;14.00;1.00
21216;DHT22;10765;50.954;5.322;2023-09-19T03:21:02;14.10;1.00
21216;DHT22;10765;50.954;5.322;2023-09-19T03:23:29;14.20;99.90
21216;DHT22;10765;50.954;5.322;2023-09-19T03:25:56;14.20;99.90
21216;DHT22;10765;50.954;5.322;2023-09-19T03:28:26;14.30;1.00
21216;DHT22;10765;50.954;5.322;2023-09-19T03:31:00;14.30;1.00
21216;DHT22;10765;50.954;5.322;2023-09-19T03:33:27;14.30;1.00
21216;DHT22;10765;50.954;5.322;2023-09-19T03:35:57;14.30;1.00
21216;DHT22;10765;50.954;5.322;2023-09-19T03:38:25;14.30;1.00
21216;DHT22;10765;50.954;5.322;2023-09-19T03:40:51;14.30;1.00
21216;DHT22;10765;50.954;5.322;2023-09-19T03:43:18;14.40;99.90
21216;DHT22;10765;50.954;5.322;2023-09-19T03:45:47;14.40;99.90
21216;DHT22;10765;50.954;5.322;2023-09-19T03:48:14;14.40;99.90
21216;DHT22;10765;50.954;5.322;2023-09-19T03:50:41;14.40;99.90
21216;DHT22;10765;50.954;5.322;2023-09-19T03:53:09;14.40;99.90
21216;DHT22;10765;50.954;5.322;2023-09-19T03:55:36;14.50;99.90
21216;DHT22;10765;50.954;5.322;2023-09-19T03:58:04;14.50;99.90
21216;DHT22;10765;50.954;5.322;2023-09-19T04:00:31;14.50;99.90
21216;DHT22;10765;50.954;5.322;2023-09-19T04:03:01;14.50;99.90
21216;DHT22;10765;50.954;5.322;2023-09-19T04:05:31;14.40;99.90
21216;DHT22;10765;50.954;5.322;2023-09-19T04:07:58;14.40;13.20
21216;DHT22;10765;50.954;5.322;2023-09-19T04:10:25;14.50;1.00
21216;DHT22;10765;50.954;5.322;2023-09-19T04:12:52;14.50;1.00
21216;DHT22;10765;50.954;5.322;2023-09-19T04:15:19;14.50;1.00
21216;DHT22;10765;50.954;5.322;2023-09-19T04:17:48;14.60;1.00
21216;DHT22;10765;50.954;5.322;2023-09-19T04:20:17;14.60;1.00
21216;DHT22;10765;50.954;5.322;2023-09-19T04:22:45;14.60;1.00
21216;DHT22;10765;50.954;5.322;2023-09-19T04:25:13;14.60;1.00
21216;DHT22;10765;50.954;5.322;2023-09-19T04:27:40;14.60;99.90
21216;DHT22;10765;50.954;5.322;2023-09-19T04:30:08;14.70;99.90
21216;DHT22;10765;50.954;5.322;2023-09-19T04:32:38;14.70;99.90
21216;DHT22;10765;50.954;5.322;2023-09-19T04:35:07;14.80;99.90
21216;DHT22;10765;50.954;5.322;2023-09-19T04:37:37;14.80;99.90
21216;DHT22;10765;50.954;5.322;2023-09-19T04:40:06;14.90;99.90
21216;DHT22;10765;50.954;5.322;2023-09-19T04:42:38;14.90;99.90
21216;DHT22;10765;50.954;5.322;2023-09-19T04:45:06;14.80;99.90
21216;DHT22;10765;50.954;5.322;2023-09-19T04:47:35;14.70;1.00
21216;DHT22;10765;50.954;5.322;2023-09-19T04:50:07;14.60;1.00
21216;DHT22;10765;50.954;5.322;2023-09-19T04:52:40;14.40;1.00
21216;DHT22;10765;50.954;5.322;2023-09-19T04:55:09;14.30;99.90
21216;DHT22;10765;50.954;5.322;2023-09-19T04:57:39;14.20;99.90
21216;DHT22;10765;50.954;5.322;2023-09-19T05:00:07;14.10;1.00
21216;DHT22;10765;50.954;5.322;2023-09-19T05:02:38;14.10;1.00
21216;DHT22;10765;50.954;5.322;2023-09-19T05:05:07;14.10;1.00
21216;DHT22;10765;50.954;5.322;2023-09-19T05:07:34;14.10;57.70
21216;DHT22;10765;50.954;5.322;2023-09-19T05:10:03;14.10;99.90
21216;DHT22;10765;50.954;5.322;2023-09-19T05:12:33;14.20;1.00
21216;DHT22;10765;50.954;5.322;2023-09-19T05:15:01;14.30;99.90
21216;DHT22;10765;50.954;5.322;2023-09-19T05:17:28;14.30;99.20
21216;DHT22;10765;50.954;5.322;2023-09-19T05:19:55;14.40;11.30
21216;DHT22;10765;50.954;5.322;2023-09-19T05:22:23;14.40;21.40
21216;DHT22;10765;50.954;5.322;2023-09-19T05:24:51;14.30;99.90
21216;DHT22;10765;50.954;5.322;2023-09-19T05:27:19;14.20;99.90
21216;DHT22;10765;50.954;5.322;2023-09-19T05:29:47;14.20;99.90
21216;DHT22;10765;50.954;5.322;2023-09-19T05:32:14;14.10;99.90
21216;DHT22;10765;50.954;5.322;2023-09-19T05:34:41;14.10;99.90
21216;DHT22;10765;50.954;5.322;2023-09-19T05:37:08;14.10;1.00
21216;DHT22;10765;50.954;5.322;2023-09-19T05:39:35;14.10;1.00
21216;DHT22;10765;50.954;5.322;2023-09-19T05:42:03;14.10;99.90
21216;DHT22;10765;50.954;5.322;2023-09-19T05:44:31;14.10;99.90
21216;DHT22;10765;50.954;5.322;2023-09-19T05:46:58;14.10;99.90
21216;DHT22;10765;50.954;5.322;2023-09-19T05:49:25;14.20;99.90
21216;DHT22;10765;50.954;5.322;2023-09-19T05:51:53;14.20;99.90
21216;DHT22;10765;50.954;5.322;2023-09-19T05:54:22;14.20;99.90
21216;DHT22;10765;50.954;5.322;2023-09-19T05:56:49;14.20;56.30
21216;DHT22;10765;50.954;5.322;2023-09-19T05:59:18;14.30;99.90
21216;DHT22;10765;50.954;5.322;2023-09-19T06:01:47;14.40;21.40
21216;DHT22;10765;50.954;5.322;2023-09-19T06:04:13;14.40;1.00
21216;DHT22;10765;50.954;5.322;2023-09-19T06:06:40;14.40;1.00
21216;DHT22;10765;50.954;5.322;2023-09-19T06:09:08;14.50;1.00
21216;DHT22;10765;50.954;5.322;2023-09-19T06:11:35;14.60;1.00
21216;DHT22;10765;50.954;5.322;2023-09-19T06:14:02;14.70;99.90
21216;DHT22;10765;50.954;5.322;2023-09-19T06:16:28;14.80;99.90
21216;DHT22;10765;50.954;5.322;2023-09-19T06:18:58;14.90;99.90
21216;DHT22;10765;50.954;5.322;2023-09-19T06:21:26;15.00;41.60
21216;DHT22;10765;50.954;5.322;2023-09-19T06:23:53;15.20;1.00
21216;DHT22;10765;50.954;5.322;2023-09-19T06:26:20;15.20;1.00
21216;DHT22;10765;50.954;5.322;2023-09-19T06:28:48;15.30;1.00
21216;DHT22;10765;50.954;5.322;2023-09-19T06:31:15;15.30;1.00
21216;DHT22;10765;50.954;5.322;2023-09-19T06:33:42;15.40;1.00
21216;DHT22;10765;50.954;5.322;2023-09-19T06:36:11;15.50;1.00
21216;DHT22;10765;50.954;5.322;2023-09-19T06:38:38;15.50;99.90
21216;DHT22;10765;50.954;5.322;2023-09-19T06:41:05;15.40;99.90
21216;DHT22;10765;50.954;5.322;2023-09-19T06:43:32;15.50;1.00
21216;DHT22;10765;50.954;5.322;2023-09-19T06:46:00;15.90;99.90
21216;DHT22;10765;50.954;5.322;2023-09-19T06:48:27;16.10;99.90
21216;DHT22;10765;50.954;5.322;2023-09-19T06:50:55;16.20;99.90
21216;DHT22;10765;50.954;5.322;2023-09-19T06:53:25;16.30;99.90
21216;DHT22;10765;50.954;5.322;2023-09-19T06:55:52;16.40;62.80
21216;DHT22;10765;50.954;5.322;2023-09-19T06:58:19;16.50;75.30
21216;DHT22;10765;50.954;5.322;2023-09-19T07:00:46;16.80;1.00
21216;DHT22;10765;50.954;5.322;2023-09-19T07:03:15;16.90;1.00
21216;DHT22;10765;50.954;5.322;2023-09-19T07:05:44;17.20;1.00
21216;DHT22;10765;50.954;5.322;2023-09-19T07:08:11;17.60;1.00
21216;DHT22;10765;50.954;5.322;2023-09-19T07:10:40;18.20;1.00
21216;DHT22;10765;50.954;5.322;2023-09-19T07:13:08;18.60;1.00
21216;DHT22;10765;50.954;5.322;2023-09-19T07:15:38;18.50;1.00
21216;DHT22;10765;50.954;5.322;2023-09-19T07:18:12;18.30;1.00
21216;DHT22;10765;50.954;5.322;2023-09-19T07:20:40;18.40;1.00
21216;DHT22;10765;50.954;5.322;2023-09-19T07:23:11;18.10;1.00
21216;DHT22;10765;50.954;5.322;2023-09-19T07:25:41;18.10;1.00
21216;DHT22;10765;50.954;5.322;2023-09-19T07:28:07;18.30;1.00
21216;DHT22;10765;50.954;5.322;2023-09-19T07:30:36;18.70;1.00
21216;DHT22;10765;50.954;5.322;2023-09-19T07:33:04;18.70;1.00
21216;DHT22;10765;50.954;5.322;2023-09-19T07:35:32;18.80;1.00
21216;DHT22;10765;50.954;5.322;2023-09-19T07:37:58;19.00;1.00
21216;DHT22;10765;50.954;5.322;2023-09-19T07:40:27;19.10;1.00
21216;DHT22;10765;50.954;5.322;2023-09-19T07:42:55;19.40;1.00
21216;DHT22;10765;50.954;5.322;2023-09-19T07:45:22;19.70;1.00
21216;DHT22;10765;50.954;5.322;2023-09-19T07:47:51;19.30;1.00
21216;DHT22;10765;50.954;5.322;2023-09-19T07:50:19;19.60;1.00
21216;DHT22;10765;50.954;5.322;2023-09-19T07:52:46;19.60;1.00
21216;DHT22;10765;50.954;5.322;2023-09-19T07:55:13;19.70;1.00
21216;DHT22;10765;50.954;5.322;2023-09-19T07:57:42;20.20;1.00
21216;DHT22;10765;50.954;5.322;2023-09-19T08:00:11;20.20;1.00
21216;DHT22;10765;50.954;5.322;2023-09-19T08:02:39;20.50;1.00
21216;DHT22;10765;50.954;5.322;2023-09-19T08:05:08;20.70;1.00
21216;DHT22;10765;50.954;5.322;2023-09-19T08:07:37;20.90;99.90
21216;DHT22;10765;50.954;5.322;2023-09-19T08:10:05;21.30;99.90
21216;DHT22;10765;50.954;5.322;2023-09-19T08:12:33;21.50;99.90
21216;DHT22;10765;50.954;5.322;2023-09-19T08:15:01;22.20;99.90
21216;DHT22;10765;50.954;5.322;2023-09-19T08:17:34;22.60;99.90
21216;DHT22;10765;50.954;5.322;2023-09-19T08:20:01;21.50;99.90
21216;DHT22;10765;50.954;5.322;2023-09-19T08:22:31;20.90;99.90
21216;DHT22;10765;50.954;5.322;2023-09-19T08:24:58;21.30;99.90
21216;DHT22;10765;50.954;5.322;2023-09-19T08:27:25;20.90;99.90
21216;DHT22;10765;50.954;5.322;2023-09-19T08:29:53;21.20;99.90
21216;DHT22;10765;50.954;5.322;2023-09-19T08:32:20;22.10;99.90
21216;DHT22;10765;50.954;5.322;2023-09-19T08:34:51;23.10;99.90
21216;DHT22;10765;50.954;5.322;2023-09-19T08:37:18;22.60;99.90
21216;DHT22;10765;50.954;5.322;2023-09-19T08:39:45;22.80;99.90
21216;DHT22;10765;50.954;5.322;2023-09-19T08:42:12;22.60;99.90
21216;DHT22;10765;50.954;5.322;2023-09-19T08:44:39;22.60;99.90
21216;DHT22;10765;50.954;5.322;2023-09-19T08:47:10;22.50;99.90
21216;DHT22;10765;50.954;5.322;2023-09-19T08:49:44;22.40;99.90
21216;DHT22;10765;50.954;5.322;2023-09-19T08:52:22;22.50;99.90
21216;DHT22;10765;50.954;5.322;2023-09-19T08:54:52;22.80;99.90
21216;DHT22;10765;50.954;5.322;2023-09-19T08:57:21;22.80;99.90
21216;DHT22;10765;50.954;5.322;2023-09-19T08:59:49;23.40;99.90
21216;DHT22;10765;50.954;5.322;2023-09-19T09:02:16;24.20;99.90
21216;DHT22;10765;50.954;5.322;2023-09-19T09:04:46;25.00;99.90
21216;DHT22;10765;50.954;5.322;2023-09-19T09:07:14;24.50;99.90
21216;DHT22;10765;50.954;5.322;2023-09-19T09:09:43;25.10;99.90
21216;DHT22;10765;50.954;5.322;2023-09-19T09:12:12;24.70;99.90
21216;DHT22;10765;50.954;5.322;2023-09-19T09:14:39;25.00;99.90
21216;DHT22;10765;50.954;5.322;2023-09-19T09:17:07;25.60;99.90
21216;DHT22;10765;50.954;5.322;2023-09-19T09:19:34;24.90;99.90
21216;DHT22;10765;50.954;5.322;2023-09-19T09:22:08;24.70;99.90
21216;DHT22;10765;50.954;5.322;2023-09-19T09:24:36;25.30;99.90
21216;DHT22;10765;50.954;5.322;2023-09-19T09:27:06;26.00;99.90
21216;DHT22;10765;50.954;5.322;2023-09-19T09:29:44;26.40;99.90
21216;DHT22;10765;50.954;5.322;2023-09-19T09:32:23;25.90;99.90
21216;DHT22;10765;50.954;5.322;2023-09-19T09:34:52;26.10;99.90
21216;DHT22;10765;50.954;5.322;2023-09-19T09:37:20;26.30;99.90
21216;DHT22;10765;50.954;5.322;2023-09-19T09:39:51;26.40;99.90
21216;DHT22;10765;50.954;5.322;2023-09-19T09:42:35;25.80;99.90
21216;DHT22;10765;50.954;5.322;2023-09-19T09:45:15;26.00;99.90
21216;DHT22;10765;50.954;5.322;2023-09-19T09:47:46;25.50;99.90
21216;DHT22;10765;50.954;5.322;2023-09-19T09:50:28;24.80;99.90
21216;DHT22;10765;50.954;5.322;2023-09-19T09:53:23;24.20;99.90
21216;DHT22;10765;50.954;5.322;2023-09-19T09:56:03;24.20;99.90
21216;DHT22;10765;50.954;5.322;2023-09-19T09:58:37;24.30;99.90
21216;DHT22;10765;50.954;5.322;2023-09-19T10:01:06;24.00;99.90
21216;DHT22;10765;50.954;5.322;2023-09-19T10:03:37;23.70;99.90
21216;DHT22;10765;50.954;5.322;2023-09-19T10:06:07;23.90;99.90
21216;DHT22;10765;50.954;5.322;2023-09-19T10:08:59;24.20;99.90
21216;DHT22;10765;50.954;5.322;2023-09-19T10:11:31;24.30;99.90
21216;DHT22;10765;50.954;5.322;2023-09-19T10:14:00;24.40;99.90
21216;DHT22;10765;50.954;5.322;2023-09-19T10:16:30;24.70;99.90
21216;DHT22;10765;50.954;5.322;2023-09-19T10:18:59;25.20;99.90
21216;DHT22;10765;50.954;5.322;2023-09-19T10:21:28;25.20;99.90
21216;DHT22;10765;50.954;5.322;2023-09-19T10:23:58;25.70;99.90
21216;DHT22;10765;50.954;5.322;2023-09-19T10:26:26;25.00;99.90
21216;DHT22;10765;50.954;5.322;2023-09-19T10:28:58;25.50;99.90
21216;DHT22;10765;50.954;5.322;2023-09-19T10:31:28;25.60;99.90
21216;DHT22;10765;50.954;5.322;2023-09-19T10:33:55;26.20;99.90
21216;DHT22;10765;50.954;5.322;2023-09-19T10:36:24;26.90;99.90
21216;DHT22;10765;50.954;5.322;2023-09-19T10:38:53;27.10;99.90
21216;DHT22;10765;50.954;5.322;2023-09-19T10:41:22;27.70;99.90
21216;DHT22;10765;50.954;5.322;2023-09-19T10:43:51;28.80;99.90
21216;DHT22;10765;50.954;5.322;2023-09-19T10:46:21;29.20;99.90
21216;DHT22;10765;50.954;5.322;2023-09-19T10:48:50;28.70;99.90
21216;DHT22;10765;50.954;5.322;2023-09-19T10:51:22;30.60;99.90
21216;DHT22;10765;50.954;5.322;2023-09-19T10:53:52;31.10;99.90
21216;DHT22;10765;50.954;5.322;2023-09-19T10:56:24;31.60;99.90
21216;DHT22;10765;50.954;5.322;2023-09-19T10:59:05;32.30;99.90
21216;DHT22;10765;50.954;5.322;2023-09-19T11:01:43;31.80;99.90
21216;DHT22;10765;50.954;5.322;2023-09-19T11:04:27;31.30;99.90
21216;DHT22;10765;50.954;5.322;2023-09-19T11:07:05;31.50;99.90
21216;DHT22;10765;50.954;5.322;2023-09-19T11:09:44;31.00;99.90
21216;DHT22;10765;50.954;5.322;2023-09-19T11:12:12;31.00;99.90
21216;DHT22;10765;50.954;5.322;2023-09-19T11:15:02;31.90;99.90
21216;DHT22;10765;50.954;5.322;2023-09-19T11:17:35;31.60;99.90
21216;DHT22;10765;50.954;5.322;2023-09-19T11:20:22;33.10;99.90
21216;DHT22;10765;50.954;5.322;2023-09-19T11:23:23;34.00;99.90
21216;DHT22;10765;50.954;5.322;2023-09-19T11:25:52;33.00;99.90
21216;DHT22;10765;50.954;5.322;2023-09-19T11:28:30;32.20;99.90
21216;DHT22;10765;50.954;5.322;2023-09-19T11:30:58;32.80;99.90
21216;DHT22;10765;50.954;5.322;2023-09-19T11:33:27;32.10;99.90
21216;DHT22;10765;50.954;5.322;2023-09-19T11:36:02;32.20;99.90
21216;DHT22;10765;50.954;5.322;2023-09-19T11:38:57;31.70;99.90
21216;DHT22;10765;50.954;5.322;2023-09-19T11:41:40;31.10;99.90
21216;DHT22;10765;50.954;5.322;2023-09-19T11:44:34;30.20;99.90
21216;DHT22;10765;50.954;5.322;2023-09-19T11:47:06;29.70;99.90
21216;DHT22;10765;50.954;5.322;2023-09-19T11:49:40;27.70;99.90
21216;DHT22;10765;50.954;5.322;2023-09-19T11:52:06;29.60;99.90
21216;DHT22;10765;50.954;5.322;2023-09-19T11:54:35;28.10;99.90
21216;DHT22;10765;50.954;5.322;2023-09-19T11:57:05;29.20;99.90
21216;DHT22;10765;50.954;5.322;2023-09-19T11:59:38;28.40;99.90
21216;DHT22;10765;50.954;5.322;2023-09-19T12:02:07;29.10;99.90
21216;DHT22;10765;50.954;5.322;2023-09-19T12:04:38;31.10;99.90
21216;DHT22;10765;50.954;5.322;2023-09-19T12:07:07;32.60;99.90
21216;DHT22;10765;50.954;5.322;2023-09-19T12:09:39;33.10;99.90
21216;DHT22;10765;50.954;5.322;2023-09-19T12:12:06;32.90;99.90
21216;DHT22;10765;50.954;5.322;2023-09-19T12:14:34;31.40;99.90
21216;DHT22;10765;50.954;5.322;2023-09-19T12:17:01;30.80;99.90
21216;DHT22;10765;50.954;5.322;2023-09-19T12:19:29;31.60;99.90
21216;DHT22;10765;50.954;5.322;2023-09-19T12:22:00;29.00;99.90
21216;DHT22;10765;50.954;5.322;2023-09-19T12:24:32;26.50;99.90
21216;DHT22;10765;50.954;5.322;2023-09-19T12:27:02;26.90;99.90
21216;DHT22;10765;50.954;5.322;2023-09-19T12:29:31;26.50;99.90
21216;DHT22;10765;50.954;5.322;2023-09-19T12:32:00;25.50;99.90
21216;DHT22;10765;50.954;5.322;2023-09-19T12:34:30;24.40;99.90
21216;DHT22;10765;50.954;5.322;2023-09-19T12:37:09;23.70;99.90
21216;DHT22;10765;50.954;5.322;2023-09-19T12:39:43;24.10;99.90
21216;DHT22;10765;50.954;5.322;2023-09-19T12:42:15;26.40;99.90
21216;DHT22;10765;50.954;5.322;2023-09-19T12:44:43;27.70;99.90
21216;DHT22;10765;50.954;5.322;2023-09-19T12:47:12;29.40;99.90
21216;DHT22;10765;50.954;5.322;2023-09-19T12:50:10;27.50;99.90
21216;DHT22;10765;50.954;5.322;2023-09-19T12:52:45;25.30;99.90
21216;DHT22;10765;50.954;5.322;2023-09-19T12:55:21;25.00;99.90
21216;DHT22;10765;50.954;5.322;2023-09-19T12:57:56;24.20;99.90
21216;DHT22;10765;50.954;5.322;2023-09-19T13:00:32;23.40;99.90
21216;DHT22;10765;50.954;5.322;2023-09-19T13:03:17;22.90;99.90
21216;DHT22;10765;50.954;5.322;2023-09-19T13:05:51;22.30;99.90
21216;DHT22;10765;50.954;5.322;2023-09-19T13:08:25;22.60;99.90
21216;DHT22;10765;50.954;5.322;2023-09-19T13:11:15;22.70;99.90
21216;DHT22;10765;50.954;5.322;2023-09-19T13:13:47;23.60;99.90
21216;DHT22;10765;50.954;5.322;2023-09-19T13:16:15;23.10;99.90
21216;DHT22;10765;50.954;5.322;2023-09-19T13:18:46;22.60;99.90
21216;DHT22;10765;50.954;5.322;2023-09-19T13:21:16;22.60;99.90
21216;DHT22;10765;50.954;5.322;2023-09-19T13:23:55;22.60;99.90
21216;DHT22;10765;50.954;5.322;2023-09-19T13:26:25;22.40;99.90
21216;DHT22;10765;50.954;5.322;2023-09-19T13:28:53;22.30;99.90
21216;DHT22;10765;50.954;5.322;2023-09-19T13:31:20;22.60;99.90
21216;DHT22;10765;50.954;5.322;2023-09-19T13:33:48;22.30;99.90
21216;DHT22;10765;50.954;5.322;2023-09-19T13:36:16;22.20;99.90
21216;DHT22;10765;50.954;5.322;2023-09-19T13:38:44;22.70;99.90
21216;DHT22;10765;50.954;5.322;2023-09-19T13:41:15;22.40;99.90
21216;DHT22;10765;50.954;5.322;2023-09-19T13:43:42;22.30;99.90
21216;DHT22;10765;50.954;5.322;2023-09-19T13:46:13;22.50;99.90
21216;DHT22;10765;50.954;5.322;2023-09-19T13:48:42;22.80;99.90
21216;DHT22;10765;50.954;5.322;2023-09-19T13:51:09;23.30;99.90
21216;DHT22;10765;50.954;5.322;2023-09-19T13:53:36;23.80;99.90
21216;DHT22;10765;50.954;5.322;2023-09-19T13:56:03;23.20;99.90
21216;DHT22;10765;50.954;5.322;2023-09-19T13:58:31;22.30;99.90
21216;DHT22;10765;50.954;5.322;2023-09-19T14:00:59;21.80;99.90
21216;DHT22;10765;50.954;5.322;2023-09-19T14:03:26;21.30;99.90
21216;DHT22;10765;50.954;5.322;2023-09-19T14:05:54;21.30;99.90
21216;DHT22;10765;50.954;5.322;2023-09-19T14:08:21;21.20;99.90
21216;DHT22;10765;50.954;5.322;2023-09-19T14:10:49;21.20;1.00
21216;DHT22;10765;50.954;5.322;2023-09-19T14:13:16;20.90;1.00
21216;DHT22;10765;50.954;5.322;2023-09-19T14:15:44;20.90;1.00
21216;DHT22;10765;50.954;5.322;2023-09-19T14:18:11;20.80;1.00
21216;DHT22;10765;50.954;5.322;2023-09-19T14:20:38;20.90;1.00
21216;DHT22;10765;50.954;5.322;2023-09-19T14:23:06;21.00;1.00
21216;DHT22;10765;50.954;5.322;2023-09-19T14:25:34;20.80;1.00
21216;DHT22;10765;50.954;5.322;2023-09-19T14:28:02;20.80;1.00
21216;DHT22;10765;50.954;5.322;2023-09-19T14:30:28;20.60;1.00
21216;DHT22;10765;50.954;5.322;2023-09-19T14:32:57;20.50;1.00
21216;DHT22;10765;50.954;5.322;2023-09-19T14:35:24;20.30;1.00
21216;DHT22;10765;50.954;5.322;2023-09-19T14:37:51;20.50;1.00
21216;DHT22;10765;50.954;5.322;2023-09-19T14:40:18;20.80;1.00
21216;DHT22;10765;50.954;5.322;2023-09-19T14:42:45;21.00;1.00
21216;DHT22;10765;50.954;5.322;2023-09-19T14:45:13;21.20;1.00
21216;DHT22;10765;50.954;5.322;2023-09-19T14:47:43;21.40;1.00
21216;DHT22;10765;50.954;5.322;2023-09-19T14:50:12;21.40;1.00
21216;DHT22;10765;50.954;5.322;2023-09-19T14:52:39;21.50;1.00
21216;DHT22;10765;50.954;5.322;2023-09-19T14:55:07;21.50;1.00
21216;DHT22;10765;50.954;5.322;2023-09-19T14:57:40;21.50;1.00
21216;DHT22;10765;50.954;5.322;2023-09-19T15:00:08;21.30;1.00
21216;DHT22;10765;50.954;5.322;2023-09-19T15:02:38;21.10;1.00
21216;DHT22;10765;50.954;5.322;2023-09-19T15:05:06;21.00;1.00
21216;DHT22;10765;50.954;5.322;2023-09-19T15:07:35;20.80;1.00
21216;DHT22;10765;50.954;5.322;2023-09-19T15:10:04;20.90;1.00
21216;DHT22;10765;50.954;5.322;2023-09-19T15:12:32;20.90;1.00
21216;DHT22;10765;50.954;5.322;2023-09-19T15:15:00;20.80;1.00
21216;DHT22;10765;50.954;5.322;2023-09-19T15:17:27;20.90;1.00
21216;DHT22;10765;50.954;5.322;2023-09-19T15:19:54;20.80;1.00
21216;DHT22;10765;50.954;5.322;2023-09-19T15:22:21;21.10;1.00
21216;DHT22;10765;50.954;5.322;2023-09-19T15:24:50;21.00;1.00
21216;DHT22;10765;50.954;5.322;2023-09-19T15:27:17;21.00;1.00
21216;DHT22;10765;50.954;5.322;2023-09-19T15:29:45;21.10;1.00
21216;DHT22;10765;50.954;5.322;2023-09-19T15:32:13;21.30;1.00
21216;DHT22;10765;50.954;5.322;2023-09-19T15:34:40;21.40;1.00
21216;DHT22;10765;50.954;5.322;2023-09-19T15:37:06;21.00;1.00
21216;DHT22;10765;50.954;5.322;2023-09-19T15:39:33;20.90;1.00
21216;DHT22;10765;50.954;5.322;2023-09-19T15:42:04;21.00;1.00
21216;DHT22;10765;50.954;5.322;2023-09-19T15:44:31;21.00;1.00
21216;DHT22;10765;50.954;5.322;2023-09-19T15:46:58;21.00;1.00
21216;DHT22;10765;50.954;5.322;2023-09-19T15:49:25;20.50;1.00
21216;DHT22;10765;50.954;5.322;2023-09-19T15:51:52;20.30;1.00
21216;DHT22;10765;50.954;5.322;2023-09-19T15:54:19;20.20;1.00